createdAt,value
2019-03-05T00:00:52.359Z,6.86
2019-03-05T00:01:52.349Z,6.86
2019-03-05T00:02:52.308Z,6.88
2019-03-05T00:03:52.323Z,6.83
2019-03-05T00:04:52.281Z,6.88
2019-03-05T00:05:52.281Z,6.92
2019-03-05T00:06:52.264Z,6.82
2019-03-05T00:07:52.254Z,6.83
2019-03-05T00:08:52.279Z,6.86
2019-03-05T00:09:52.239Z,6.88
2019-03-05T00:10:52.205Z,6.86
2019-03-05T00:11:52.207Z,6.93
2019-03-05T00:12:52.226Z,6.85
2019-03-05T00:13:52.249Z,6.96
2019-03-05T00:14:52.213Z,6.86
2019-03-05T00:15:52.177Z,6.97
2019-03-05T00:16:52.159Z,6.91
2019-03-05T00:17:52.149Z,6.91
2019-03-05T00:18:52.133Z,6.91
2019-03-05T00:19:52.147Z,6.85
2019-03-05T00:20:52.131Z,6.86
2019-03-05T00:21:52.109Z,6.89
2019-03-05T00:22:52.100Z,6.92
2019-03-05T00:23:52.102Z,6.89
2019-03-05T00:24:52.103Z,6.88
2019-03-05T00:25:52.088Z,6.89
2019-03-05T00:26:52.057Z,6.93
2019-03-05T00:27:52.037Z,6.88
2019-03-05T00:28:52.026Z,6.93
2019-03-05T00:29:52.045Z,6.96
2019-03-05T00:30:52.040Z,6.92
2019-03-05T00:31:51.987Z,6.91
2019-03-05T00:32:51.988Z,6.96
2019-03-05T00:33:51.991Z,6.92
2019-03-05T00:34:51.979Z,6.92
2019-03-05T00:35:52.003Z,6.96
2019-03-05T00:36:51.942Z,6.93
2019-03-05T00:37:51.932Z,6.99
2019-03-05T00:38:51.922Z,6.91
2019-03-05T00:39:51.917Z,6.91
2019-03-05T00:40:51.922Z,6.97
2019-03-05T00:41:51.865Z,6.91
2019-03-05T00:42:51.859Z,6.88
2019-03-05T00:43:51.900Z,6.88
2019-03-05T00:44:51.917Z,6.88
2019-03-05T00:45:51.878Z,6.91
2019-03-05T00:46:51.837Z,6.96
2019-03-05T00:47:51.867Z,6.96
2019-03-05T00:48:51.810Z,6.88
2019-03-05T00:49:51.783Z,6.97
2019-03-05T00:50:51.812Z,6.92
2019-03-05T00:51:51.788Z,6.88
2019-03-05T00:52:51.803Z,6.92
2019-03-05T00:53:51.748Z,6.99
2019-03-05T00:54:51.743Z,6.88
2019-03-05T00:55:51.742Z,6.97
2019-03-05T00:56:51.722Z,6.92
2019-03-05T00:57:51.713Z,6.88
2019-03-05T00:58:51.734Z,6.93
2019-03-05T00:59:51.705Z,6.91
2019-03-05T01:00:51.781Z,6.91
2019-03-05T01:01:51.677Z,6.88
2019-03-05T01:02:51.641Z,6.88
2019-03-05T01:03:51.647Z,6.83
2019-03-05T01:04:51.637Z,6.82
2019-03-05T01:05:51.726Z,6.83
2019-03-05T01:06:51.632Z,6.89
2019-03-05T01:07:51.599Z,6.85
2019-03-05T01:08:51.597Z,6.86
2019-03-05T01:09:51.561Z,6.83
2019-03-05T01:10:51.551Z,6.83
2019-03-05T01:11:51.588Z,6.88
2019-03-05T01:12:51.557Z,6.85
2019-03-05T01:13:51.571Z,6.85
2019-03-05T01:14:51.583Z,6.85
2019-03-05T01:15:51.556Z,6.86
2019-03-05T01:16:51.544Z,6.82
2019-03-05T01:17:51.576Z,6.82
2019-03-05T01:18:51.553Z,6.78
2019-03-05T01:19:51.506Z,6.78
2019-03-05T01:20:51.489Z,6.75
2019-03-05T01:21:51.490Z,6.83
2019-03-05T01:22:51.505Z,6.75
2019-03-05T01:23:51.475Z,6.79
2019-03-05T01:24:51.448Z,6.75
2019-03-05T01:25:51.439Z,6.75
2019-03-05T01:26:51.621Z,6.75
2019-03-05T01:27:51.430Z,6.74
2019-03-05T01:28:51.421Z,6.74
2019-03-05T01:29:51.372Z,6.74
2019-03-05T01:30:51.383Z,6.83
2019-03-05T01:31:51.344Z,6.74
2019-03-05T01:32:51.377Z,6.70
2019-03-05T01:33:51.342Z,6.75
2019-03-05T01:34:51.330Z,6.71
2019-03-05T01:35:51.315Z,6.74
2019-03-05T01:36:51.295Z,6.71
2019-03-05T01:37:51.347Z,6.75
2019-03-05T01:38:51.357Z,6.78
2019-03-05T01:39:51.293Z,6.73
2019-03-05T01:40:51.259Z,6.79
2019-03-05T01:41:51.335Z,6.82
2019-03-05T01:42:51.258Z,6.78
2019-03-05T01:43:51.251Z,6.73
2019-03-05T01:44:51.230Z,6.74
2019-03-05T01:45:51.204Z,6.74
2019-03-05T01:46:51.215Z,6.73
2019-03-05T01:47:51.236Z,6.82
2019-03-05T01:48:51.173Z,6.82
2019-03-05T01:49:51.182Z,6.79
2019-03-05T01:50:51.159Z,6.78
2019-03-05T01:51:51.134Z,6.74
2019-03-05T01:52:51.151Z,6.78
2019-03-05T01:53:51.235Z,6.74
2019-03-05T01:54:51.109Z,6.64
2019-03-05T01:55:51.099Z,6.79
2019-03-05T01:56:51.090Z,6.65
2019-03-05T01:57:51.078Z,6.63
2019-03-05T01:58:51.094Z,6.65
2019-03-05T01:59:51.082Z,6.68
2019-03-05T02:00:51.040Z,6.63
2019-03-05T02:01:51.010Z,6.64
2019-03-05T02:02:51.020Z,6.70
2019-03-05T02:03:51.018Z,6.64
2019-03-05T02:04:51.054Z,6.67
2019-03-05T02:05:51.013Z,6.70
2019-03-05T02:06:50.969Z,6.74
2019-03-05T02:07:50.962Z,6.67
2019-03-05T02:08:51.045Z,6.70
2019-03-05T02:09:50.975Z,6.70
2019-03-05T02:10:50.964Z,6.65
2019-03-05T02:11:50.934Z,6.68
2019-03-05T02:12:50.919Z,6.65
2019-03-05T02:13:50.924Z,6.73
2019-03-05T02:14:50.969Z,6.64
2019-03-05T02:15:50.907Z,6.71
2019-03-05T02:16:50.853Z,6.67
2019-03-05T02:17:50.882Z,6.65
2019-03-05T02:18:50.886Z,6.64
2019-03-05T02:19:50.903Z,6.57
2019-03-05T02:20:50.851Z,6.67
2019-03-05T02:21:50.823Z,6.68
2019-03-05T02:22:50.832Z,6.68
2019-03-05T02:23:50.829Z,6.61
2019-03-05T02:24:50.849Z,6.53
2019-03-05T02:25:50.804Z,6.65
2019-03-05T02:26:50.773Z,6.57
2019-03-05T02:27:50.784Z,6.55
2019-03-05T02:28:50.805Z,6.64
2019-03-05T02:29:50.735Z,6.68
2019-03-05T02:30:50.784Z,6.68
2019-03-05T02:31:50.739Z,6.65
2019-03-05T02:32:50.734Z,6.68
2019-03-05T02:33:50.702Z,6.64
2019-03-05T02:34:50.707Z,6.60
2019-03-05T02:35:50.792Z,6.73
2019-03-05T02:36:50.639Z,6.64
2019-03-05T02:37:50.653Z,6.67
2019-03-05T02:38:50.702Z,6.71
2019-03-05T02:39:50.660Z,6.75
2019-03-05T02:40:50.681Z,6.75
2019-03-05T02:41:50.638Z,6.70
2019-03-05T02:42:50.606Z,6.74
2019-03-05T02:43:50.599Z,6.71
2019-03-05T02:44:50.598Z,6.68
2019-03-05T02:45:50.607Z,6.65
2019-03-05T02:46:50.609Z,6.68
2019-03-05T02:47:50.569Z,6.68
2019-03-05T02:48:50.560Z,6.65
2019-03-05T02:49:50.550Z,6.73
2019-03-05T02:50:50.575Z,6.73
2019-03-05T02:51:50.538Z,6.70
2019-03-05T02:52:50.509Z,6.70
2019-03-05T02:53:50.518Z,6.60
2019-03-05T02:54:50.489Z,6.68
2019-03-05T02:55:50.549Z,6.71
2019-03-05T02:56:50.509Z,6.79
2019-03-05T02:57:50.483Z,6.74
2019-03-05T02:58:50.501Z,6.68
2019-03-05T02:59:50.421Z,6.67
2019-03-05T03:00:50.517Z,6.71
2019-03-05T03:01:50.427Z,6.65
2019-03-05T03:02:50.410Z,6.64
2019-03-05T03:03:50.386Z,6.68
2019-03-05T03:04:50.370Z,6.68
2019-03-05T03:05:50.350Z,6.57
2019-03-05T03:06:50.395Z,6.67
2019-03-05T03:07:50.379Z,6.50
2019-03-05T03:08:50.376Z,6.57
2019-03-05T03:09:50.342Z,6.56
2019-03-05T03:10:50.333Z,6.53
2019-03-05T03:11:50.410Z,6.45
2019-03-05T03:12:50.351Z,6.45
2019-03-05T03:13:50.275Z,6.42
2019-03-05T03:14:50.256Z,6.35
2019-03-05T03:15:50.247Z,6.42
2019-03-05T03:16:50.331Z,6.35
2019-03-05T03:17:50.271Z,6.30
2019-03-05T03:18:50.225Z,6.31
2019-03-05T03:19:50.247Z,6.24
2019-03-05T03:20:50.252Z,6.24
2019-03-05T03:21:50.211Z,6.13
2019-03-05T03:22:50.184Z,6.24
2019-03-05T03:23:50.147Z,6.12
2019-03-05T03:24:50.152Z,6.16
2019-03-05T03:25:50.234Z,6.13
2019-03-05T03:26:50.165Z,6.09
2019-03-05T03:27:50.101Z,6.18
2019-03-05T03:28:50.120Z,6.08
2019-03-05T03:29:50.125Z,5.95
2019-03-05T03:32:07.303Z,6.06
2019-03-05T03:33:07.280Z,6.11
2019-03-05T03:34:07.239Z,6.05
2019-03-05T03:35:07.237Z,6.03
2019-03-05T03:36:07.220Z,5.98
2019-03-05T03:37:07.298Z,6.06
2019-03-05T03:38:07.197Z,5.97
2019-03-05T03:39:07.199Z,6.03
2019-03-05T03:40:07.197Z,5.98
2019-03-05T03:41:07.160Z,5.97
2019-03-05T03:42:07.178Z,5.94
2019-03-05T03:43:07.139Z,5.93
2019-03-05T03:44:07.144Z,5.91
2019-03-05T03:45:07.140Z,5.88
2019-03-05T03:46:07.101Z,5.90
2019-03-05T03:47:07.099Z,5.90
2019-03-05T03:48:07.321Z,5.84
2019-03-05T03:49:07.077Z,5.90
2019-03-05T03:50:07.051Z,5.85
2019-03-05T03:51:07.074Z,5.85
2019-03-05T03:52:07.048Z,5.85
2019-03-05T03:53:07.020Z,5.85
2019-03-05T03:54:07.035Z,5.84
2019-03-05T03:55:06.996Z,5.70
2019-03-05T03:56:07.019Z,5.77
2019-03-05T03:57:06.997Z,5.70
2019-03-05T03:58:07.007Z,5.73
2019-03-05T03:59:06.977Z,5.75
2019-03-05T04:00:06.963Z,5.65
2019-03-05T04:01:07.464Z,5.70
2019-03-05T04:02:06.944Z,5.66
2019-03-05T04:03:06.926Z,5.59
2019-03-05T04:04:06.922Z,5.58
2019-03-05T04:05:06.902Z,5.57
2019-03-05T04:06:06.924Z,5.61
2019-03-05T04:07:06.877Z,5.55
2019-03-05T04:08:10.176Z,5.58
2019-03-05T04:09:06.932Z,5.62
2019-03-05T04:10:06.846Z,5.55
2019-03-05T04:11:06.838Z,5.66
2019-03-05T04:12:06.846Z,5.61
2019-03-05T04:13:06.887Z,5.58
2019-03-05T04:14:06.841Z,5.65
2019-03-05T04:15:06.817Z,5.61
2019-03-05T04:16:06.817Z,5.70
2019-03-05T04:17:06.806Z,5.75
2019-03-05T04:18:06.771Z,5.67
2019-03-05T04:19:06.778Z,5.73
2019-03-05T04:20:06.741Z,5.72
2019-03-05T04:21:06.752Z,5.69
2019-03-05T04:22:06.703Z,5.66
2019-03-05T04:23:06.720Z,5.72
2019-03-05T04:24:06.987Z,5.70
2019-03-05T04:25:06.688Z,5.70
2019-03-05T04:26:06.673Z,5.72
2019-03-05T04:27:06.666Z,5.77
2019-03-05T04:28:06.644Z,5.70
2019-03-05T04:29:06.720Z,5.76
2019-03-05T04:30:06.638Z,5.75
2019-03-05T04:31:06.620Z,5.77
2019-03-05T04:32:06.613Z,5.76
2019-03-05T04:33:06.602Z,5.79
2019-03-05T04:34:06.639Z,5.84
2019-03-05T04:35:06.570Z,5.82
2019-03-05T04:36:06.547Z,5.87
2019-03-05T04:37:06.549Z,5.84
2019-03-05T04:38:06.532Z,5.84
2019-03-05T04:39:06.625Z,5.82
2019-03-05T04:40:06.626Z,5.82
2019-03-05T04:41:06.504Z,5.82
2019-03-05T04:42:06.526Z,5.80
2019-03-05T04:43:06.525Z,5.80
2019-03-05T04:44:06.574Z,5.84
2019-03-05T04:45:06.502Z,5.85
2019-03-05T04:46:06.486Z,5.85
2019-03-05T04:47:06.462Z,5.87
2019-03-05T04:48:06.503Z,5.80
2019-03-05T04:49:06.498Z,5.85
2019-03-05T04:50:06.503Z,5.84
2019-03-05T04:51:06.382Z,5.87
2019-03-05T04:52:06.391Z,5.85
2019-03-05T04:53:06.380Z,5.79
2019-03-05T04:54:06.371Z,5.80
2019-03-05T04:55:06.432Z,5.87
2019-03-05T04:56:06.352Z,5.82
2019-03-05T04:57:06.333Z,5.88
2019-03-05T04:58:06.324Z,5.85
2019-03-05T04:59:06.313Z,5.85
2019-03-05T05:00:06.318Z,5.82
2019-03-05T05:01:06.323Z,5.88
2019-03-05T05:02:06.267Z,5.82
2019-03-05T05:03:06.277Z,5.85
2019-03-05T05:04:06.243Z,5.80
2019-03-05T05:05:06.304Z,5.77
2019-03-05T05:06:06.272Z,5.88
2019-03-05T05:07:06.233Z,5.80
2019-03-05T05:08:06.224Z,5.77
2019-03-05T05:09:06.200Z,5.77
2019-03-05T05:10:06.223Z,5.77
2019-03-05T05:11:06.231Z,5.69
2019-03-05T05:12:06.173Z,5.82
2019-03-05T05:13:06.163Z,5.84
2019-03-05T05:14:06.155Z,5.79
2019-03-05T05:15:06.149Z,5.79
2019-03-05T05:16:06.111Z,5.77
2019-03-05T05:17:06.115Z,5.76
2019-03-05T05:18:06.112Z,5.77
2019-03-05T05:19:06.118Z,5.79
2019-03-05T05:20:06.085Z,5.85
2019-03-05T05:21:06.065Z,5.85
2019-03-05T05:22:06.057Z,5.82
2019-03-05T05:23:06.089Z,5.80
2019-03-05T05:24:06.041Z,5.76
2019-03-05T05:25:06.073Z,5.85
2019-03-05T05:26:06.017Z,5.85
2019-03-05T05:27:06.022Z,5.85
2019-03-05T05:28:05.989Z,5.79
2019-03-05T05:29:05.990Z,5.85
2019-03-05T05:30:06.021Z,5.90
2019-03-05T05:31:05.964Z,5.79
2019-03-05T05:32:05.958Z,5.79
2019-03-05T05:33:05.938Z,5.79
2019-03-05T05:34:05.929Z,5.80
2019-03-05T05:35:05.923Z,5.80
2019-03-05T05:36:05.966Z,5.80
2019-03-05T05:37:05.911Z,5.79
2019-03-05T05:38:05.919Z,5.85
2019-03-05T05:39:05.883Z,5.82
2019-03-05T05:40:05.888Z,5.82
2019-03-05T05:41:05.901Z,5.80
2019-03-05T05:42:05.841Z,5.79
2019-03-05T05:43:05.863Z,5.80
2019-03-05T05:44:05.819Z,5.76
2019-03-05T05:45:05.831Z,5.80
2019-03-05T05:46:05.830Z,5.67
2019-03-05T05:47:05.827Z,5.77
2019-03-05T05:48:05.787Z,5.77
2019-03-05T05:49:05.762Z,5.73
2019-03-05T05:50:05.783Z,5.76
2019-03-05T05:51:05.788Z,5.75
2019-03-05T05:52:05.734Z,5.75
2019-03-05T05:53:05.751Z,5.76
2019-03-05T05:54:05.698Z,5.80
2019-03-05T05:55:05.714Z,5.80
2019-03-05T05:56:05.732Z,5.70
2019-03-05T05:57:05.691Z,5.77
2019-03-05T05:58:05.669Z,5.76
2019-03-05T05:59:05.642Z,5.82
2019-03-05T06:00:05.811Z,5.84
2019-03-05T06:01:05.650Z,5.85
2019-03-05T06:02:05.652Z,5.76
2019-03-05T06:03:05.623Z,5.84
2019-03-05T06:04:05.613Z,5.87
2019-03-05T06:05:05.636Z,5.84
2019-03-05T06:06:05.812Z,5.85
2019-03-05T06:07:05.582Z,5.85
2019-03-05T06:08:05.574Z,5.80
2019-03-05T06:09:05.533Z,5.80
2019-03-05T06:10:05.556Z,5.82
2019-03-05T06:11:05.542Z,5.79
2019-03-05T06:12:05.548Z,5.80
2019-03-05T06:13:05.509Z,5.84
2019-03-05T06:14:05.499Z,5.80
2019-03-05T06:15:05.482Z,5.80
2019-03-05T06:16:05.479Z,5.77
2019-03-05T06:17:05.515Z,5.77
2019-03-05T06:18:05.457Z,5.80
2019-03-05T06:19:05.443Z,5.85
2019-03-05T06:20:05.451Z,5.87
2019-03-05T06:21:05.474Z,5.85
2019-03-05T06:22:05.440Z,5.85
2019-03-05T06:23:05.425Z,5.85
2019-03-05T06:24:05.403Z,5.70
2019-03-05T06:25:05.404Z,5.69
2019-03-05T06:26:08.435Z,5.65
2019-03-05T06:27:05.442Z,5.58
2019-03-05T06:28:05.336Z,5.65
2019-03-05T06:29:05.347Z,5.65
2019-03-05T06:30:05.339Z,5.57
2019-03-05T06:31:05.385Z,5.61
2019-03-05T06:32:05.345Z,5.70
2019-03-05T06:33:05.378Z,5.67
2019-03-05T06:34:05.281Z,5.67
2019-03-05T06:35:05.286Z,5.69
2019-03-05T06:36:05.234Z,5.79
2019-03-05T06:37:05.313Z,5.69
2019-03-05T06:38:05.287Z,5.70
2019-03-05T06:39:05.231Z,5.73
2019-03-05T06:40:05.234Z,5.67
2019-03-05T06:41:05.226Z,5.69
2019-03-05T06:42:05.202Z,5.69
2019-03-05T06:43:05.233Z,5.66
2019-03-05T06:44:05.185Z,5.69
2019-03-05T06:45:05.158Z,5.61
2019-03-05T06:46:05.176Z,5.66
2019-03-05T06:47:05.155Z,5.59
2019-03-05T06:48:05.145Z,5.62
2019-03-05T06:49:05.115Z,5.62
2019-03-05T06:50:05.123Z,5.58
2019-03-05T06:51:05.080Z,5.69
2019-03-05T06:52:05.083Z,5.69
2019-03-05T06:53:05.104Z,5.72
2019-03-05T06:54:05.085Z,5.70
2019-03-05T06:55:05.093Z,5.72
2019-03-05T06:56:05.028Z,5.75
2019-03-05T06:57:05.027Z,5.70
2019-03-05T06:58:05.088Z,5.75
2019-03-05T06:59:05.044Z,5.66
2019-03-05T07:00:04.994Z,5.72
2019-03-05T07:01:04.973Z,5.72
2019-03-05T07:02:04.969Z,5.75
2019-03-05T07:03:04.984Z,5.77
2019-03-05T07:04:04.953Z,5.72
2019-03-05T07:05:04.931Z,5.76
2019-03-05T07:06:04.921Z,5.75
2019-03-05T07:07:04.902Z,5.69
2019-03-05T07:08:04.929Z,5.72
2019-03-05T07:09:04.873Z,5.69
2019-03-05T07:10:04.873Z,5.69
2019-03-05T07:11:04.905Z,5.69
2019-03-05T07:12:04.920Z,5.66
2019-03-05T07:13:04.876Z,5.70
2019-03-05T07:14:04.904Z,5.65
2019-03-05T07:15:04.798Z,5.70
2019-03-05T07:16:04.820Z,5.69
2019-03-05T07:17:04.829Z,5.67
2019-03-05T07:18:04.775Z,5.72
2019-03-05T07:19:04.823Z,5.75
2019-03-05T07:20:04.771Z,5.75
2019-03-05T07:21:04.759Z,5.75
2019-03-05T07:22:04.755Z,5.75
2019-03-05T07:23:04.760Z,5.73
2019-03-05T07:24:04.760Z,5.82
2019-03-05T07:25:04.739Z,5.80
2019-03-05T07:26:04.720Z,5.85
2019-03-05T07:27:04.692Z,5.85
2019-03-05T07:28:04.697Z,5.88
2019-03-05T07:29:04.739Z,5.84
2019-03-05T07:30:04.661Z,5.84
2019-03-05T07:31:04.677Z,5.88
2019-03-05T07:32:04.635Z,5.91
2019-03-05T07:33:04.638Z,5.90
2019-03-05T07:34:04.638Z,5.93
2019-03-05T07:35:04.630Z,5.93
2019-03-05T07:36:04.677Z,5.95
2019-03-05T07:37:04.609Z,5.91
2019-03-05T07:38:04.552Z,6.00
2019-03-05T07:39:04.581Z,6.06
2019-03-05T07:40:04.588Z,6.00
2019-03-05T07:41:04.573Z,6.00
2019-03-05T07:42:04.519Z,6.00
2019-03-05T07:43:04.518Z,5.98
2019-03-05T07:44:04.520Z,5.93
2019-03-05T07:45:04.499Z,5.93
2019-03-05T07:46:04.458Z,6.00
2019-03-05T07:47:04.450Z,5.98
2019-03-05T07:48:04.455Z,5.94
2019-03-05T07:49:04.446Z,5.98
2019-03-05T07:50:04.474Z,6.02
2019-03-05T07:51:04.430Z,6.08
2019-03-05T07:52:04.413Z,6.13
2019-03-05T07:53:04.377Z,6.08
2019-03-05T07:54:04.390Z,6.08
2019-03-05T07:55:13.261Z,6.02
2019-03-05T07:56:05.389Z,6.05
2019-03-05T07:57:04.335Z,6.15
2019-03-05T07:58:04.352Z,6.09
2019-03-05T07:59:04.332Z,6.12
2019-03-05T08:00:05.512Z,6.13
2019-03-05T08:01:04.354Z,6.09
2019-03-05T08:02:04.294Z,6.13
2019-03-05T08:03:04.297Z,6.24
2019-03-05T08:04:04.306Z,6.21
2019-03-05T08:05:04.305Z,6.28
2019-03-05T08:06:04.366Z,6.32
2019-03-05T08:07:04.280Z,6.35
2019-03-05T08:08:04.228Z,6.37
2019-03-05T08:09:04.219Z,6.35
2019-03-05T08:10:04.260Z,6.47
2019-03-05T08:11:04.269Z,6.50
2019-03-05T08:12:04.203Z,6.49
2019-03-05T08:13:04.214Z,6.49
2019-03-05T08:14:04.194Z,6.40
2019-03-05T08:15:04.164Z,6.55
2019-03-05T08:16:04.217Z,6.49
2019-03-05T08:17:04.163Z,6.55
2019-03-05T08:18:04.125Z,6.55
2019-03-05T08:19:04.131Z,6.57
2019-03-05T08:20:04.109Z,6.52
2019-03-05T08:21:04.155Z,6.49
2019-03-05T08:22:04.080Z,6.53
2019-03-05T08:23:04.079Z,6.45
2019-03-05T08:24:04.221Z,6.50
2019-03-05T08:25:04.050Z,6.45
2019-03-05T08:26:04.083Z,6.40
2019-03-05T08:27:04.007Z,6.53
2019-03-05T08:28:04.011Z,6.55
2019-03-05T08:29:04.002Z,6.50
2019-03-05T08:30:13.746Z,6.52
2019-03-05T08:31:05.021Z,6.55
2019-03-05T08:32:03.960Z,6.57
2019-03-05T08:33:03.953Z,6.52
2019-03-05T08:34:03.930Z,6.55
2019-03-05T08:35:03.984Z,6.57
2019-03-05T08:36:04.031Z,6.60
2019-03-05T08:37:03.976Z,6.53
2019-03-05T08:38:03.895Z,6.55
2019-03-05T08:39:03.879Z,6.45
2019-03-05T08:40:03.862Z,6.40
2019-03-05T08:41:03.853Z,6.50
2019-03-05T08:42:03.865Z,6.45
2019-03-05T08:43:03.858Z,6.37
2019-03-05T08:44:03.870Z,6.42
2019-03-05T08:45:03.871Z,6.47
2019-03-05T08:46:03.812Z,6.38
2019-03-05T08:47:03.833Z,6.43
2019-03-05T08:48:03.793Z,6.42
2019-03-05T08:49:03.807Z,6.32
2019-03-05T08:50:03.778Z,6.34
2019-03-05T08:51:03.774Z,6.40
2019-03-05T08:52:03.902Z,6.40
2019-03-05T08:53:03.725Z,6.38
2019-03-05T08:54:03.727Z,6.37
2019-03-05T08:55:03.716Z,6.38
2019-03-05T08:56:03.727Z,6.38
2019-03-05T08:57:03.718Z,6.38
2019-03-05T08:58:03.724Z,6.40
2019-03-05T08:59:03.668Z,6.49
2019-03-05T09:00:03.668Z,6.55
2019-03-05T09:01:03.645Z,6.57
2019-03-05T09:02:03.666Z,6.57
2019-03-05T09:03:03.664Z,6.70
2019-03-05T09:04:03.700Z,6.78
2019-03-05T09:05:03.611Z,6.79
2019-03-05T09:06:03.635Z,6.75
2019-03-05T09:07:03.611Z,6.86
2019-03-05T09:08:03.575Z,6.83
2019-03-05T09:09:03.585Z,6.92
2019-03-05T09:10:03.587Z,6.92
2019-03-05T09:11:03.567Z,6.93
2019-03-05T09:12:03.536Z,7.06
2019-03-05T09:13:03.517Z,7.00
2019-03-05T09:14:03.508Z,7.06
2019-03-05T09:15:03.527Z,7.00
2019-03-05T09:16:03.488Z,6.97
2019-03-05T09:17:03.511Z,7.04
2019-03-05T09:18:03.590Z,7.04
2019-03-05T09:19:03.482Z,7.03
2019-03-05T09:20:03.768Z,7.01
2019-03-05T09:21:03.444Z,7.06
2019-03-05T09:22:03.423Z,7.04
2019-03-05T09:23:03.412Z,7.04
2019-03-05T09:24:03.392Z,6.99
2019-03-05T09:25:03.419Z,7.00
2019-03-05T09:26:03.453Z,7.03
2019-03-05T09:27:03.347Z,7.03
2019-03-05T09:28:03.359Z,7.00
2019-03-05T09:29:03.378Z,6.99
2019-03-05T09:30:03.352Z,6.97
2019-03-05T09:31:03.336Z,7.03
2019-03-05T09:32:03.307Z,6.97
2019-03-05T09:33:03.291Z,7.03
2019-03-05T09:34:03.350Z,7.01
2019-03-05T09:35:03.269Z,7.07
2019-03-05T09:36:03.289Z,7.04
2019-03-05T09:37:03.248Z,6.96
2019-03-05T09:38:03.257Z,6.97
2019-03-05T09:39:03.392Z,7.00
2019-03-05T09:40:03.267Z,6.96
2019-03-05T09:41:03.212Z,6.97
2019-03-05T09:42:03.215Z,6.96
2019-03-05T09:43:03.204Z,6.97
2019-03-05T09:44:03.267Z,7.06
2019-03-05T09:45:03.173Z,7.04
2019-03-05T09:46:03.156Z,7.01
2019-03-05T09:47:03.147Z,7.10
2019-03-05T09:48:03.148Z,7.06
2019-03-05T09:49:03.190Z,7.11
2019-03-05T09:50:03.139Z,7.07
2019-03-05T09:51:03.112Z,7.00
2019-03-05T09:52:03.142Z,7.01
2019-03-05T09:53:03.116Z,7.06
2019-03-05T09:54:03.094Z,7.01
2019-03-05T09:55:03.186Z,7.03
2019-03-05T09:56:03.092Z,6.99
2019-03-05T09:57:03.106Z,7.07
2019-03-05T09:58:08.064Z,7.00
2019-03-05T09:59:04.045Z,7.03
2019-03-05T10:00:03.038Z,6.99
2019-03-05T10:01:03.084Z,6.97
2019-03-05T10:02:02.997Z,6.97
2019-03-05T10:03:02.993Z,6.96
2019-03-05T10:04:02.970Z,6.92
2019-03-05T10:05:02.983Z,6.91
2019-03-05T10:06:02.958Z,6.91
2019-03-05T10:07:02.960Z,6.93
2019-03-05T10:08:02.922Z,7.01
2019-03-05T10:09:02.910Z,7.03
2019-03-05T10:10:02.925Z,7.04
2019-03-05T10:11:02.894Z,7.07
2019-03-05T10:12:02.897Z,7.04
2019-03-05T10:13:04.456Z,7.00
2019-03-05T10:14:02.886Z,6.96
2019-03-05T10:15:02.879Z,6.97
2019-03-05T10:16:02.832Z,6.93
2019-03-05T10:17:02.828Z,6.96
2019-03-05T10:18:12.382Z,6.97
2019-03-05T10:19:04.525Z,7.03
2019-03-05T10:20:02.851Z,7.07
2019-03-05T10:21:02.839Z,7.10
2019-03-05T10:22:02.767Z,7.13
2019-03-05T10:23:02.751Z,7.24
2019-03-05T10:24:10.456Z,7.15
2019-03-05T10:25:06.303Z,7.33
2019-03-05T10:26:02.770Z,7.24
2019-03-05T10:27:02.686Z,7.33
2019-03-05T10:28:02.685Z,7.28
2019-03-05T10:29:02.706Z,7.24
2019-03-05T10:30:02.683Z,7.26
2019-03-05T10:31:02.711Z,7.28
2019-03-05T10:32:02.704Z,7.25
2019-03-05T10:33:02.666Z,7.25
2019-03-05T10:34:02.654Z,7.25
2019-03-05T10:35:02.679Z,7.28
2019-03-05T10:36:02.709Z,7.31
2019-03-05T10:37:12.332Z,7.33
2019-03-05T10:38:03.561Z,7.31
2019-03-05T10:39:02.592Z,7.24
2019-03-05T10:40:02.618Z,7.34
2019-03-05T10:41:02.618Z,7.28
2019-03-05T10:42:02.590Z,7.29
2019-03-05T10:43:08.547Z,7.28
2019-03-05T10:44:03.525Z,7.26
2019-03-05T10:45:02.535Z,7.26
2019-03-05T10:46:02.543Z,7.28
2019-03-05T10:47:02.484Z,7.25
2019-03-05T10:48:02.476Z,7.29
2019-03-05T10:49:02.475Z,7.37
2019-03-05T10:50:02.450Z,7.40
2019-03-05T10:51:02.484Z,7.43
2019-03-05T10:52:02.425Z,7.49
2019-03-05T10:53:02.453Z,7.46
2019-03-05T10:54:02.419Z,7.55
2019-03-05T10:55:02.387Z,7.58
2019-03-05T10:56:02.425Z,7.60
2019-03-05T10:57:02.415Z,7.66
2019-03-05T10:58:02.469Z,7.62
2019-03-05T10:59:02.328Z,7.78
2019-03-05T11:00:02.354Z,7.71
2019-03-05T11:01:02.321Z,7.83
2019-03-05T11:02:02.375Z,7.83
2019-03-05T11:03:02.398Z,7.83
2019-03-05T11:04:02.335Z,7.94
2019-03-05T11:05:02.290Z,7.94
2019-03-05T11:06:02.299Z,7.98
2019-03-05T11:07:02.282Z,7.98
2019-03-05T11:08:02.246Z,8.06
2019-03-05T11:09:02.247Z,8.17
2019-03-05T11:10:02.258Z,8.12
2019-03-05T11:11:12.727Z,8.17
2019-03-05T11:12:03.204Z,8.21
2019-03-05T11:13:02.201Z,8.26
2019-03-05T11:14:02.214Z,8.24
2019-03-05T11:15:02.208Z,8.34
2019-03-05T11:16:02.191Z,8.28
2019-03-05T11:17:02.128Z,8.23
2019-03-05T11:18:02.131Z,8.28
2019-03-05T11:19:02.103Z,8.19
2019-03-05T11:20:02.112Z,8.23
2019-03-05T11:21:02.112Z,8.31
2019-03-05T11:22:02.180Z,8.31
2019-03-05T11:23:02.074Z,8.28
2019-03-05T11:24:02.061Z,8.26
2019-03-05T11:25:02.076Z,8.35
2019-03-05T11:26:02.071Z,8.37
2019-03-05T11:27:02.071Z,8.29
2019-03-05T11:28:02.029Z,8.42
2019-03-05T11:29:02.020Z,8.42
2019-03-05T11:30:02.068Z,8.37
2019-03-05T11:31:02.023Z,8.44
2019-03-05T11:32:02.020Z,8.41
2019-03-05T11:33:01.978Z,8.59
2019-03-05T11:34:01.986Z,8.56
2019-03-05T11:35:02.079Z,8.55
2019-03-05T11:36:01.937Z,8.57
2019-03-05T11:37:01.923Z,8.72
2019-03-05T11:38:01.920Z,8.67
2019-03-05T11:39:01.952Z,8.70
2019-03-05T11:40:01.918Z,8.74
2019-03-05T11:41:01.945Z,8.71
2019-03-05T11:42:01.877Z,8.65
2019-03-05T11:43:01.925Z,8.65
2019-03-05T11:44:01.884Z,8.74
2019-03-05T11:45:07.516Z,8.83
2019-03-05T11:46:02.826Z,8.78
2019-03-05T11:47:01.819Z,8.75
2019-03-05T11:48:01.803Z,8.89
2019-03-05T11:49:01.813Z,8.81
2019-03-05T11:50:01.799Z,8.81
2019-03-05T11:51:01.756Z,8.71
2019-03-05T11:52:01.763Z,8.85
2019-03-05T11:53:01.772Z,8.78
2019-03-05T11:54:01.779Z,8.74
2019-03-05T11:55:01.755Z,8.70
2019-03-05T11:56:01.717Z,8.70
2019-03-05T11:57:01.832Z,8.59
2019-03-05T11:58:01.704Z,8.57
2019-03-05T11:59:01.738Z,8.56
2019-03-05T12:00:01.669Z,8.59
2019-03-05T12:01:01.661Z,8.50
2019-03-05T12:02:01.648Z,8.49
2019-03-05T12:03:01.649Z,8.53
2019-03-05T12:04:01.679Z,8.52
2019-03-05T12:05:01.613Z,8.57
2019-03-05T12:06:01.603Z,8.57
2019-03-05T12:07:01.591Z,8.55
2019-03-05T12:08:01.586Z,8.59
2019-03-05T12:09:01.797Z,8.59
2019-03-05T12:10:01.596Z,8.68
2019-03-05T12:11:01.544Z,8.63
2019-03-05T12:12:01.566Z,8.71
2019-03-05T12:13:01.573Z,8.81
2019-03-05T12:14:01.516Z,8.81
2019-03-05T12:15:01.590Z,8.67
2019-03-05T12:16:01.521Z,8.88
2019-03-05T12:17:01.465Z,8.86
2019-03-05T12:18:01.470Z,8.80
2019-03-05T12:19:01.500Z,8.89
2019-03-05T12:20:01.468Z,8.86
2019-03-05T12:21:01.683Z,8.99
2019-03-05T12:22:01.456Z,8.93
2019-03-05T12:23:02.394Z,8.95
2019-03-05T12:24:01.412Z,9.06
2019-03-05T12:25:03.342Z,9.04
2019-03-05T12:26:01.385Z,9.09
2019-03-05T12:27:01.410Z,9.12
2019-03-05T12:28:09.694Z,9.14
2019-03-05T12:29:02.347Z,9.19
2019-03-05T12:30:01.351Z,9.22
2019-03-05T12:31:01.338Z,9.12
2019-03-05T12:32:01.388Z,9.23
2019-03-05T12:33:01.291Z,9.24
2019-03-05T12:34:01.348Z,9.27
2019-03-05T12:35:01.280Z,9.23
2019-03-05T12:36:01.275Z,9.22
2019-03-05T12:37:01.280Z,9.24
2019-03-05T12:38:01.283Z,9.18
2019-03-05T12:39:01.218Z,9.26
2019-03-05T12:40:01.321Z,9.18
2019-03-05T12:41:01.207Z,9.11
2019-03-05T12:42:03.555Z,9.14
2019-03-05T12:43:01.209Z,9.23
2019-03-05T12:44:01.198Z,9.22
2019-03-05T12:45:01.230Z,9.15
2019-03-05T12:46:01.175Z,9.14
2019-03-05T12:47:01.163Z,9.16
2019-03-05T12:48:01.155Z,9.22
2019-03-05T12:49:01.136Z,9.14
2019-03-05T12:50:01.160Z,9.14
2019-03-05T12:51:01.101Z,9.12
2019-03-05T12:52:01.120Z,9.04
2019-03-05T12:53:01.089Z,9.04
2019-03-05T12:54:01.129Z,9.09
2019-03-05T12:55:01.079Z,9.01
2019-03-05T12:56:01.075Z,9.08
2019-03-05T12:57:01.049Z,9.19
2019-03-05T12:58:01.025Z,9.04
2019-03-05T12:59:01.012Z,9.15
2019-03-05T13:00:01.050Z,9.12
2019-03-05T13:01:01.071Z,9.11
2019-03-05T13:02:01.006Z,9.19
2019-03-05T13:03:01.010Z,9.26
2019-03-05T13:04:00.953Z,9.19
2019-03-05T13:05:00.948Z,9.26
2019-03-05T13:06:00.997Z,9.23
2019-03-05T13:07:00.950Z,9.26
2019-03-05T13:08:00.951Z,9.16
2019-03-05T13:09:00.901Z,9.23
2019-03-05T13:10:02.305Z,9.23
2019-03-05T13:11:00.984Z,9.27
2019-03-05T13:12:00.877Z,9.19
2019-03-05T13:13:00.892Z,9.14
2019-03-05T13:14:06.200Z,9.19
2019-03-05T13:15:01.853Z,9.19
2019-03-05T13:16:00.888Z,9.19
2019-03-05T13:17:00.854Z,9.19
2019-03-05T13:18:00.833Z,9.23
2019-03-05T13:19:00.860Z,9.18
2019-03-05T13:20:00.827Z,9.19